Time;durP1;ratioP1;P1;durP2;ratioP2;P2;SDS_P1;SDS_P2;PMS_P1;PMS_P2;Temp;Humidity;BMP_temperature;BMP_pressure;BME280_temperature;BME280_humidity;BME280_pressure;Samples;Min_cycle;Max_cycle;Signal;HPM_P1;HPM_P2
2024/03/29 00:00:42;;;;;;;5.10;0.43;;;8.20;99.90;;;;;;4969805;28;20045;-84
2024/03/29 00:03:09;;;;;;;1.35;0.35;;;8.30;99.90;;;;;;4993311;28;20109;-84
2024/03/29 00:05:35;;;;;;;4.25;0.45;;;8.30;99.90;;;;;;4961235;28;20118;-86
2024/03/29 00:08:01;;;;;;;2.45;0.50;;;8.30;99.90;;;;;;4974143;28;20041;-84
2024/03/29 00:10:26;;;;;;;0.75;0.40;;;8.30;99.90;;;;;;4965807;28;20029;-84
2024/03/29 00:12:52;;;;;;;0.43;0.20;;;8.30;99.90;;;;;;4974041;28;20026;-85
2024/03/29 00:15:18;;;;;;;5.03;0.35;;;8.30;99.90;;;;;;4989087;28;20790;-86
2024/03/29 00:17:43;;;;;;;5.75;0.50;;;8.40;99.90;;;;;;4956671;28;20018;-86
2024/03/29 00:20:09;;;;;;;1.75;0.47;;;8.30;99.90;;;;;;4996181;28;20033;-84
2024/03/29 00:22:35;;;;;;;1.10;0.30;;;8.30;99.90;;;;;;4974569;28;20027;-85
2024/03/29 00:25:00;;;;;;;2.17;0.30;;;8.30;99.90;;;;;;4974362;28;20444;-86
2024/03/29 00:27:28;;;;;;;6.88;0.60;;;8.40;99.90;;;;;;4974543;28;20033;-85
2024/03/29 00:29:53;;;;;;;4.28;0.50;;;8.30;99.90;;;;;;4989147;28;20122;-85
2024/03/29 00:32:20;;;;;;;2.63;0.80;;;8.30;99.90;;;;;;4971418;28;20045;-85
2024/03/29 00:34:45;;;;;;;1.92;0.50;;;8.30;99.90;;;;;;4975917;28;20487;-85
2024/03/29 00:37:11;;;;;;;4.18;0.88;;;8.30;99.90;;;;;;4959745;28;20109;-85
2024/03/29 00:39:37;;;;;;;3.80;0.60;;;8.40;99.90;;;;;;4986769;28;20504;-86
2024/03/29 00:42:04;;;;;;;1.95;0.90;;;8.30;99.90;;;;;;4969934;28;20042;-87
2024/03/29 00:44:30;;;;;;;1.02;0.20;;;8.30;99.90;;;;;;4987728;28;20041;-85
2024/03/29 00:46:55;;;;;;;1.00;0.50;;;8.40;99.90;;;;;;4975544;28;20031;-85
2024/03/29 00:49:21;;;;;;;3.33;0.73;;;8.40;99.90;;;;;;4959580;28;20084;-85
2024/03/29 00:51:46;;;;;;;1.48;0.40;;;8.40;99.90;;;;;;4961090;28;20092;-85
2024/03/29 00:54:12;;;;;;;1.38;0.50;;;8.40;99.90;;;;;;4965961;28;20594;-86
2024/03/29 00:56:37;;;;;;;7.00;0.63;;;8.30;99.90;;;;;;4970850;28;20568;-85
2024/03/29 00:59:03;;;;;;;3.30;0.40;;;8.30;99.90;;;;;;4970623;28;20558;-85
2024/03/29 01:01:28;;;;;;;2.08;0.22;;;8.50;99.90;;;;;;4974170;28;20089;-83
2024/03/29 01:03:54;;;;;;;4.28;0.80;;;8.40;99.90;;;;;;4971260;28;20487;-83
2024/03/29 01:06:20;;;;;;;2.33;0.40;;;8.40;99.90;;;;;;4990200;28;20396;-82
2024/03/29 01:08:45;;;;;;;2.70;0.43;;;8.30;99.90;;;;;;4957761;28;20484;-85
2024/03/29 01:11:11;;;;;;;2.88;0.30;;;8.30;99.90;;;;;;4975302;28;20033;-86
2024/03/29 01:13:36;;;;;;;2.03;0.38;;;8.30;99.90;;;;;;4980503;28;20037;-86
2024/03/29 01:16:02;;;;;;;1.88;0.50;;;8.30;99.90;;;;;;4970882;28;20030;-85
2024/03/29 01:18:27;;;;;;;4.32;0.57;;;8.30;99.90;;;;;;4972836;28;20492;-86
2024/03/29 01:20:53;;;;;;;2.13;0.40;;;8.30;99.90;;;;;;4971124;28;20045;-85
2024/03/29 01:23:18;;;;;;;2.40;0.52;;;8.30;99.90;;;;;;4972615;28;20472;-85
2024/03/29 01:25:44;;;;;;;3.92;0.60;;;8.30;99.90;;;;;;4988929;28;20054;-85
2024/03/29 01:28:09;;;;;;;1.95;0.38;;;8.30;99.90;;;;;;4956412;28;20034;-85
2024/03/29 01:30:35;;;;;;;4.65;0.60;;;8.30;99.90;;;;;;4990279;28;20022;-84
2024/03/29 01:33:00;;;;;;;2.38;0.47;;;8.30;99.90;;;;;;4968123;28;20484;-85
2024/03/29 01:35:26;;;;;;;3.92;0.60;;;8.20;99.90;;;;;;4966509;28;20495;-85
2024/03/29 01:37:51;;;;;;;1.42;0.40;;;8.30;99.90;;;;;;4971909;28;20026;-83
2024/03/29 01:40:17;;;;;;;2.00;0.30;;;8.30;99.90;;;;;;4957193;28;20034;-85
2024/03/29 01:42:43;;;;;;;2.75;0.40;;;8.30;99.90;;;;;;4972850;28;20526;-86
2024/03/29 01:45:08;;;;;;;1.75;0.73;;;8.30;99.90;;;;;;4973121;28;20026;-85
2024/03/29 01:47:34;;;;;;;0.93;0.32;;;8.30;99.90;;;;;;4956151;28;20026;-85
2024/03/29 01:50:00;;;;;;;1.70;0.47;;;8.40;99.90;;;;;;4973113;28;20065;-86
2024/03/29 01:52:27;;;;;;;1.85;0.50;;;8.40;99.90;;;;;;4953429;28;20044;-86
2024/03/29 01:54:52;;;;;;;3.28;0.40;;;8.40;99.90;;;;;;4970606;28;20034;-86
2024/03/29 01:57:18;;;;;;;0.52;0.10;;;8.40;99.90;;;;;;4973090;28;20030;-86
2024/03/29 01:59:43;;;;;;;2.13;0.40;;;8.50;99.90;;;;;;4972785;28;20187;-87
2024/03/29 02:02:09;;;;;;;1.17;0.25;;;8.50;99.90;;;;;;4958613;28;20038;-84
2024/03/29 02:04:35;;;;;;;4.45;0.50;;;8.60;99.90;;;;;;4985995;28;20393;-86
2024/03/29 02:07:01;;;;;;;2.38;0.40;;;8.60;99.90;;;;;;4986172;28;20448;-85
2024/03/29 02:09:27;;;;;;;2.47;1.23;;;8.60;99.90;;;;;;4974158;28;20046;-88
2024/03/29 02:11:53;;;;;;;1.75;0.45;;;8.50;99.90;;;;;;4952318;28;20034;-82
2024/03/29 02:14:18;;;;;;;4.38;0.40;;;8.60;99.90;;;;;;4954736;28;20077;-86
2024/03/29 02:16:44;;;;;;;3.08;0.60;;;8.60;99.90;;;;;;4975873;28;20095;-86
2024/03/29 02:19:09;;;;;;;0.82;0.30;;;8.60;99.90;;;;;;4959166;28;20027;-85
2024/03/29 02:21:36;;;;;;;0.98;0.32;;;8.70;99.90;;;;;;4967249;28;20537;-86
2024/03/29 02:24:06;;;;;;;2.08;0.38;;;8.70;99.90;;;;;;4984830;28;20130;-85
2024/03/29 02:26:35;;;;;;;2.72;0.40;;;8.70;99.90;;;;;;4971803;28;20026;-83
2024/03/29 02:29:04;;;;;;;2.08;0.43;;;8.80;99.90;;;;;;4990541;28;20512;-85
2024/03/29 02:31:29;;;;;;;0.60;0.30;;;8.80;99.90;;;;;;4956942;28;20034;-85
2024/03/29 02:33:55;;;;;;;1.88;0.45;;;8.80;99.90;;;;;;4961805;28;20365;-84
2024/03/29 02:36:21;;;;;;;0.50;0.30;;;8.80;99.90;;;;;;4974441;28;20034;-85
2024/03/29 02:38:46;;;;;;;3.60;0.60;;;8.90;99.90;;;;;;4972547;28;20492;-86
2024/03/29 02:41:12;;;;;;;2.60;0.38;;;8.90;99.90;;;;;;4966715;28;20042;-84
2024/03/29 02:43:37;;;;;;;2.28;0.32;;;8.80;99.90;;;;;;4989795;28;20029;-85
2024/03/29 02:46:03;;;;;;;1.63;0.40;;;8.90;99.90;;;;;;4989493;28;20040;-84
2024/03/29 02:48:29;;;;;;;1.05;0.35;;;8.90;99.90;;;;;;4960778;28;20137;-84
2024/03/29 02:50:54;;;;;;;1.70;0.70;;;8.90;99.90;;;;;;4973140;28;20033;-85
2024/03/29 02:53:20;;;;;;;4.47;0.50;;;9.00;99.90;;;;;;4955909;28;20134;-85
2024/03/29 02:55:45;;;;;;;3.95;0.80;;;9.00;99.90;;;;;;4985631;28;20161;-85
2024/03/29 02:58:11;;;;;;;1.88;0.40;;;9.10;99.90;;;;;;4972850;28;20073;-85
2024/03/29 03:00:36;;;;;;;1.23;0.40;;;9.10;99.90;;;;;;4969810;28;20125;-84
2024/03/29 03:03:02;;;;;;;2.38;0.40;;;9.10;99.90;;;;;;4966208;28;20081;-84
2024/03/29 03:05:29;;;;;;;2.53;0.50;;;9.20;99.90;;;;;;4959904;28;20130;-85
2024/03/29 03:10:59;;;;;;;2.25;0.32;;;9.20;99.90;;;;;;4996671;28;20145;-84
2024/03/29 03:13:27;;;;;;;4.10;0.70;;;9.20;99.90;;;;;;4972779;28;20038;-86
2024/03/29 03:15:53;;;;;;;2.30;0.60;;;9.20;99.90;;;;;;4976836;28;20394;-84
2024/03/29 03:18:18;;;;;;;1.77;0.30;;;9.30;99.90;;;;;;4978757;28;20034;-85
2024/03/29 03:20:53;;;;;;;1.55;0.68;;;9.10;99.90;;;;;;4977773;28;20529;-85
2024/03/29 03:23:18;;;;;;;1.85;0.47;;;9.10;99.90;;;;;;4986790;28;20054;-85
2024/03/29 03:25:44;;;;;;;1.25;0.32;;;9.10;99.90;;;;;;4989032;28;20784;-84
2024/03/29 03:28:10;;;;;;;1.58;0.43;;;9.10;99.90;;;;;;4991559;28;20030;-86
2024/03/29 03:30:41;;;;;;;1.50;0.30;;;9.10;99.90;;;;;;4963107;28;20084;-85
2024/03/29 03:33:07;;;;;;;1.30;0.60;;;9.00;99.90;;;;;;4956890;28;20483;-85
2024/03/29 03:35:36;;;;;;;2.28;0.47;;;9.00;99.90;;;;;;4961550;28;20023;-84
2024/03/29 03:38:01;;;;;;;0.40;0.32;;;9.00;99.90;;;;;;4973384;28;20054;-85
2024/03/29 03:40:27;;;;;;;2.08;0.28;;;9.00;99.90;;;;;;4988271;28;20189;-85
2024/03/29 03:42:53;;;;;;;3.22;0.50;;;9.00;99.90;;;;;;4975617;28;20082;-85
2024/03/29 03:45:18;;;;;;;1.27;0.40;;;9.00;99.90;;;;;;4975886;28;20812;-85
2024/03/29 03:47:44;;;;;;;1.02;0.30;;;9.00;99.90;;;;;;4988975;28;20035;-84
2024/03/29 03:50:09;;;;;;;2.10;0.50;;;8.90;99.90;;;;;;4975744;28;20062;-86
2024/03/29 03:52:35;;;;;;;3.03;0.32;;;8.90;99.90;;;;;;4960526;28;20034;-84
2024/03/29 03:55:00;;;;;;;2.10;0.40;;;8.90;99.90;;;;;;4977906;28;20037;-86
2024/03/29 03:57:26;;;;;;;3.15;0.50;;;8.90;99.90;;;;;;4988395;28;20353;-86
2024/03/29 03:59:52;;;;;;;1.77;0.20;;;8.90;99.90;;;;;;4977902;28;20141;-86
2024/03/29 04:02:18;;;;;;;2.35;0.40;;;8.80;99.90;;;;;;4980579;28;20114;-86
2024/03/29 04:04:47;;;;;;;0.85;0.30;;;8.80;99.90;;;;;;4969539;28;20089;-84
2024/03/29 04:07:13;;;;;;;4.00;0.70;;;8.80;99.90;;;;;;4974797;28;20034;-85
2024/03/29 04:09:38;;;;;;;2.25;0.50;;;8.80;99.90;;;;;;4960290;28;20052;-85
2024/03/29 04:12:04;;;;;;;3.92;0.50;;;8.80;99.90;;;;;;4960217;28;20034;-85
2024/03/29 04:14:30;;;;;;;3.03;0.40;;;8.80;99.90;;;;;;4975024;28;20027;-85
2024/03/29 04:16:55;;;;;;;0.95;0.40;;;8.80;99.90;;;;;;4975077;28;20038;-84
2024/03/29 04:19:21;;;;;;;1.75;0.40;;;8.80;99.90;;;;;;4971813;28;20045;-85
2024/03/29 04:21:46;;;;;;;1.20;0.30;;;8.70;99.90;;;;;;4963380;28;20038;-86
2024/03/29 04:24:12;;;;;;;0.80;0.30;;;8.70;99.90;;;;;;4987003;28;20026;-86
2024/03/29 04:26:38;;;;;;;1.25;0.30;;;8.70;99.90;;;;;;4960914;28;20403;-85
2024/03/29 04:29:04;;;;;;;1.67;0.45;;;8.60;99.90;;;;;;4969916;28;20061;-85
2024/03/29 04:31:29;;;;;;;1.88;0.50;;;8.60;99.90;;;;;;4992915;28;20065;-85
2024/03/29 04:33:55;;;;;;;1.90;0.70;;;8.60;99.90;;;;;;4989757;28;20026;-85
2024/03/29 04:36:20;;;;;;;3.88;0.75;;;8.60;99.90;;;;;;4972330;28;20037;-85
2024/03/29 04:38:47;;;;;;;1.90;0.45;;;8.60;99.90;;;;;;4975390;28;20081;-85
2024/03/29 04:41:12;;;;;;;1.73;0.70;;;8.60;99.90;;;;;;4959437;28;20146;-85
2024/03/29 04:43:38;;;;;;;0.82;0.40;;;8.60;99.90;;;;;;4989729;28;20126;-85
2024/03/29 04:46:09;;;;;;;2.25;0.50;;;8.60;99.90;;;;;;4990846;28;20037;-83
2024/03/29 04:48:38;;;;;;;1.42;0.55;;;8.50;99.90;;;;;;5002030;28;20038;-83
2024/03/29 04:51:04;;;;;;;2.33;0.50;;;8.50;99.90;;;;;;4988549;28;20042;-84
2024/03/29 04:53:30;;;;;;;3.67;0.52;;;8.40;99.90;;;;;;4956863;28;21446;-83
2024/03/29 04:55:57;;;;;;;0.45;0.28;;;8.40;99.90;;;;;;4974323;28;20038;-82
2024/03/29 04:58:23;;;;;;;1.50;0.50;;;8.30;99.90;;;;;;4989510;28;20040;-83
2024/03/29 05:00:49;;;;;;;2.88;0.50;;;8.30;99.90;;;;;;4955751;28;20022;-83
2024/03/29 05:03:15;;;;;;;3.60;0.63;;;8.30;99.90;;;;;;4959574;28;20035;-82
2024/03/29 05:05:40;;;;;;;2.20;0.60;;;8.30;99.90;;;;;;4978358;28;20088;-82
2024/03/29 05:08:06;;;;;;;1.83;0.77;;;8.30;99.90;;;;;;4983939;28;20026;-81
2024/03/29 05:10:34;;;;;;;0.70;0.50;;;8.20;99.90;;;;;;4975082;28;20125;-83
2024/03/29 05:13:00;;;;;;;1.33;0.40;;;8.10;99.90;;;;;;4965819;28;20026;-83
2024/03/29 05:15:26;;;;;;;2.63;0.50;;;8.10;99.90;;;;;;4957361;28;20023;-83
2024/03/29 05:17:53;;;;;;;6.18;0.70;;;8.00;99.90;;;;;;4983050;28;20038;-82
2024/03/29 05:20:18;;;;;;;2.38;0.88;;;8.00;99.90;;;;;;4985252;28;20047;-83
2024/03/29 05:22:44;;;;;;;1.13;0.60;;;7.90;99.90;;;;;;4956712;28;20523;-83
2024/03/29 05:25:09;;;;;;;4.72;0.73;;;7.80;99.90;;;;;;4970123;28;20446;-83
2024/03/29 05:27:35;;;;;;;2.47;0.68;;;7.80;99.90;;;;;;4967932;28;20026;-82
2024/03/29 05:30:02;;;;;;;1.45;0.60;;;7.80;99.90;;;;;;4968904;28;20025;-81
2024/03/29 05:32:30;;;;;;;2.03;0.60;;;7.80;99.90;;;;;;4956493;28;20500;-81
2024/03/29 05:34:55;;;;;;;5.25;0.60;;;7.80;99.90;;;;;;4970136;28;20176;-81
2024/03/29 05:37:22;;;;;;;2.20;0.80;;;7.60;99.90;;;;;;4970030;28;20504;-81
2024/03/29 05:39:48;;;;;;;4.82;0.77;;;7.70;99.90;;;;;;4969093;28;20034;-81
2024/03/29 05:42:20;;;;;;;3.13;0.70;;;7.70;99.90;;;;;;4985745;28;20061;-82
2024/03/29 05:44:45;;;;;;;4.03;0.77;;;7.50;99.90;;;;;;4967675;28;20362;-81
2024/03/29 05:47:11;;;;;;;1.55;0.40;;;7.50;99.90;;;;;;4971532;28;20041;-80
2024/03/29 05:49:36;;;;;;;1.85;0.60;;;7.50;99.90;;;;;;4988033;28;20053;-81
2024/03/29 05:52:02;;;;;;;1.90;0.73;;;7.50;99.90;;;;;;4972587;28;20043;-81
2024/03/29 05:54:27;;;;;;;1.85;0.60;;;7.50;99.90;;;;;;4985579;28;20129;-81
2024/03/29 05:56:53;;;;;;;4.65;1.02;;;7.50;99.90;;;;;;4967803;28;20128;-82
2024/03/29 05:59:18;;;;;;;4.72;0.60;;;7.50;99.90;;;;;;4968610;28;20420;-81
2024/03/29 06:01:44;;;;;;;1.60;0.60;;;7.50;99.90;;;;;;4987122;28;20511;-81
2024/03/29 06:04:18;;;;;;;2.92;0.90;;;7.50;99.90;;;;;;4975938;28;20062;-81
2024/03/29 06:06:44;;;;;;;1.40;0.50;;;7.50;99.90;;;;;;4968866;28;20120;-80
2024/03/29 06:09:10;;;;;;;7.28;1.13;;;7.50;99.90;;;;;;4988734;28;20133;-80
2024/03/29 06:11:35;;;;;;;4.72;1.60;;;7.50;99.90;;;;;;4983937;28;20037;-79
2024/03/29 06:19:18;;;;;;;3.63;0.98;;;7.60;99.90;;;;;;4982943;28;20053;-80
2024/03/29 06:21:43;;;;;;;3.30;0.80;;;7.60;99.90;;;;;;4964126;28;20026;-81
2024/03/29 06:24:14;;;;;;;4.13;0.80;;;7.60;99.90;;;;;;4967854;28;20023;-81
2024/03/29 06:26:40;;;;;;;1.80;0.60;;;7.60;99.90;;;;;;4949505;28;20040;-80
2024/03/29 06:29:09;;;;;;;2.83;0.80;;;7.60;99.90;;;;;;4953367;28;20407;-81
2024/03/29 06:31:34;;;;;;;1.60;0.70;;;7.60;99.90;;;;;;4982930;28;20142;-80
2024/03/29 06:34:00;;;;;;;0.98;0.50;;;7.60;99.90;;;;;;4970489;28;20411;-80
2024/03/29 06:36:25;;;;;;;1.80;0.93;;;7.60;99.90;;;;;;4987080;28;20522;-80
2024/03/29 06:38:52;;;;;;;1.92;0.60;;;7.70;99.90;;;;;;4955731;28;20030;-80
2024/03/29 06:41:17;;;;;;;1.90;0.60;;;7.80;99.90;;;;;;4954476;28;20385;-81
2024/03/29 06:43:44;;;;;;;1.48;0.57;;;7.80;99.90;;;;;;4974519;28;20522;-80
2024/03/29 06:46:10;;;;;;;1.20;0.55;;;7.70;99.90;;;;;;4985703;28;20042;-81
2024/03/29 06:48:35;;;;;;;1.05;0.63;;;7.70;99.90;;;;;;4984027;28;20042;-80
2024/03/29 06:51:02;;;;;;;4.68;0.52;;;7.80;99.90;;;;;;4968330;28;20041;-80
2024/03/29 06:53:28;;;;;;;4.38;0.52;;;7.80;99.90;;;;;;4955493;28;20526;-79
2024/03/29 06:55:55;;;;;;;2.67;0.70;;;7.90;99.90;;;;;;4971062;28;20034;-80
2024/03/29 06:58:20;;;;;;;3.40;0.70;;;7.90;99.90;;;;;;4953072;28;20034;-80
2024/03/29 07:00:48;;;;;;;2.97;0.77;;;7.90;99.90;;;;;;4968752;28;20763;-80
2024/03/29 07:03:14;;;;;;;1.35;0.80;;;7.90;99.90;;;;;;4966331;28;20396;-81
2024/03/29 07:05:40;;;;;;;3.75;0.57;;;8.00;99.90;;;;;;4971409;28;20037;-80
2024/03/29 07:08:06;;;;;;;1.23;0.60;;;8.00;99.90;;;;;;4970430;28;20497;-81
2024/03/29 07:10:32;;;;;;;4.47;1.10;;;8.10;99.90;;;;;;4955666;28;20566;-81
2024/03/29 07:12:58;;;;;;;1.75;0.60;;;8.10;99.90;;;;;;4974957;28;20408;-81
2024/03/29 07:15:23;;;;;;;3.85;0.82;;;8.20;99.90;;;;;;4963702;28;20504;-80
2024/03/29 07:17:50;;;;;;;1.02;0.35;;;8.20;99.90;;;;;;4968401;28;20038;-80
2024/03/29 07:20:16;;;;;;;0.68;0.45;;;8.30;99.90;;;;;;4981294;28;20128;-81
2024/03/29 07:22:42;;;;;;;0.55;0.28;;;8.30;99.90;;;;;;4983543;28;20070;-80
2024/03/29 07:25:09;;;;;;;0.98;0.70;;;8.30;99.90;;;;;;4965955;28;20125;-81
2024/03/29 07:27:35;;;;;;;1.63;0.80;;;8.50;99.90;;;;;;4953298;28;20033;-81
2024/03/29 07:30:03;;;;;;;2.28;0.50;;;8.60;99.90;;;;;;4971372;28;20042;-81
2024/03/29 07:32:29;;;;;;;1.48;0.70;;;8.60;99.90;;;;;;4967927;28;20500;-80
2024/03/29 07:34:57;;;;;;;1.90;0.93;;;8.70;99.90;;;;;;4972592;28;20038;-81
2024/03/29 07:37:26;;;;;;;1.15;0.50;;;8.80;99.90;;;;;;4968953;28;20035;-80
2024/03/29 07:39:52;;;;;;;3.97;1.02;;;8.80;99.90;;;;;;4968270;28;20488;-81
2024/03/29 07:42:18;;;;;;;2.65;0.50;;;8.90;99.90;;;;;;4983358;28;20035;-80
2024/03/29 07:44:44;;;;;;;4.97;1.23;;;8.90;99.90;;;;;;4951180;28;20054;-80
2024/03/29 07:47:14;;;;;;;3.58;0.75;;;8.90;99.90;;;;;;4972685;28;20057;-81
2024/03/29 07:49:39;;;;;;;5.50;0.73;;;8.90;99.90;;;;;;4956711;28;20034;-80
2024/03/29 07:52:06;;;;;;;2.03;0.80;;;9.00;99.90;;;;;;4968827;28;20043;-80
2024/03/29 07:54:32;;;;;;;3.22;0.80;;;9.00;99.90;;;;;;4983405;28;20038;-80
2024/03/29 07:56:58;;;;;;;1.20;0.65;;;9.00;99.90;;;;;;4989530;28;20031;-79
2024/03/29 07:59:25;;;;;;;1.45;0.70;;;9.00;99.90;;;;;;4970401;28;20072;-78
2024/03/29 08:01:52;;;;;;;2.47;1.15;;;9.10;99.90;;;;;;4960757;28;20038;-78
2024/03/29 08:04:17;;;;;;;2.65;0.73;;;9.10;99.90;;;;;;4988809;28;20657;-80
2024/03/29 08:06:43;;;;;;;3.35;1.08;;;9.10;99.90;;;;;;4969646;28;20117;-80
2024/03/29 08:09:09;;;;;;;3.72;1.00;;;9.10;99.90;;;;;;4970150;28;20070;-80
2024/03/29 08:11:35;;;;;;;0.65;0.47;;;9.10;99.90;;;;;;4978965;28;20128;-80
2024/03/29 08:14:03;;;;;;;2.58;0.50;;;9.20;99.90;;;;;;4974697;28;20464;-81
2024/03/29 08:16:47;;;;;;;2.13;0.60;;;9.20;99.90;;;;;;4968932;28;20030;-82
2024/03/29 08:19:13;;;;;;;1.80;0.50;;;9.20;99.90;;;;;;4978693;28;20037;-80
2024/03/29 08:21:39;;;;;;;1.00;0.90;;;9.20;99.90;;;;;;4971230;28;20388;-81
2024/03/29 08:24:13;;;;;;;2.08;0.70;;;9.30;99.90;;;;;;4975269;28;20034;-81
2024/03/29 08:26:38;;;;;;;2.75;0.80;;;9.30;99.90;;;;;;4974170;28;20121;-81
2024/03/29 08:29:04;;;;;;;1.45;0.98;;;9.40;99.90;;;;;;4972336;28;20053;-82
2024/03/29 08:31:29;;;;;;;3.50;1.00;;;9.40;99.90;;;;;;4986711;28;20559;-82
2024/03/29 08:33:55;;;;;;;1.67;0.63;;;9.40;99.90;;;;;;4974244;28;20085;-83
2024/03/29 08:36:20;;;;;;;3.40;1.00;;;9.40;99.90;;;;;;4971006;28;20088;-78
2024/03/29 08:38:47;;;;;;;2.05;0.73;;;9.50;99.90;;;;;;4971493;28;20445;-78
2024/03/29 08:41:14;;;;;;;2.20;0.90;;;9.60;99.90;;;;;;4976988;28;20575;-78
2024/03/29 08:43:40;;;;;;;1.95;0.90;;;9.60;99.90;;;;;;4956003;28;20058;-78
2024/03/29 08:46:05;;;;;;;1.83;0.85;;;9.60;99.90;;;;;;4952981;28;20073;-78
2024/03/29 08:48:31;;;;;;;2.33;0.80;;;9.70;99.90;;;;;;4966691;28;20438;-79
2024/03/29 08:50:56;;;;;;;2.47;0.80;;;9.70;99.90;;;;;;4964962;28;20496;-79
2024/03/29 08:53:22;;;;;;;2.22;1.00;;;9.70;99.90;;;;;;4966625;28;20026;-79
2024/03/29 08:55:51;;;;;;;1.08;0.70;;;9.80;99.90;;;;;;4958079;28;20022;-80
2024/03/29 08:58:17;;;;;;;1.58;0.75;;;9.80;99.90;;;;;;4979091;28;20034;-81
2024/03/29 09:00:43;;;;;;;2.22;0.77;;;9.80;99.90;;;;;;4971710;28;20038;-81
2024/03/29 09:03:08;;;;;;;2.72;0.90;;;9.90;99.90;;;;;;4967293;28;20084;-81
2024/03/29 09:05:34;;;;;;;0.95;0.60;;;9.90;99.90;;;;;;4970617;28;20030;-82
2024/03/29 09:07:59;;;;;;;2.38;0.98;;;10.00;99.90;;;;;;4985999;28;20467;-81
2024/03/29 09:10:26;;;;;;;3.22;0.90;;;9.90;99.90;;;;;;4972558;28;20035;-82
2024/03/29 09:12:53;;;;;;;3.30;0.52;;;10.00;99.90;;;;;;4985724;28;20058;-81
2024/03/29 09:15:24;;;;;;;1.10;0.77;;;10.00;99.90;;;;;;4969105;28;20042;-80
2024/03/29 09:17:55;;;;;;;3.10;0.82;;;10.00;99.90;;;;;;4967180;28;20073;-83
2024/03/29 09:20:20;;;;;;;1.35;0.77;;;10.10;99.90;;;;;;4970739;28;20097;-80
2024/03/29 09:22:46;;;;;;;0.77;0.55;;;10.10;99.90;;;;;;4973461;28;20433;-80
2024/03/29 09:25:14;;;;;;;3.35;0.90;;;10.20;99.90;;;;;;4970050;28;20106;-80
2024/03/29 09:27:42;;;;;;;1.52;0.60;;;10.30;99.90;;;;;;4973660;28;20705;-78
2024/03/29 09:30:10;;;;;;;2.20;0.85;;;10.40;99.90;;;;;;4984796;28;20408;-80
2024/03/29 09:32:39;;;;;;;2.03;0.50;;;10.50;99.90;;;;;;4979178;28;20063;-79
2024/03/29 09:35:04;;;;;;;1.20;0.65;;;10.70;99.90;;;;;;4985705;28;20035;-77
2024/03/29 09:37:30;;;;;;;2.35;0.90;;;10.70;99.90;;;;;;4985246;28;20038;-77
2024/03/29 09:39:55;;;;;;;1.60;0.77;;;10.80;99.90;;;;;;4984517;28;20177;-76
2024/03/29 09:42:24;;;;;;;1.88;0.68;;;10.80;99.90;;;;;;4973728;28;20121;-77
2024/03/29 09:44:50;;;;;;;2.03;0.90;;;10.90;99.90;;;;;;4981739;28;20057;-76
2024/03/29 09:47:17;;;;;;;1.58;0.70;;;11.00;99.90;;;;;;4966679;28;20116;-78
2024/03/29 09:49:44;;;;;;;1.40;0.73;;;11.00;99.90;;;;;;4955912;28;20086;-76
2024/03/29 09:52:10;;;;;;;2.15;0.60;;;11.00;99.90;;;;;;4958170;28;20037;-77
2024/03/29 09:54:37;;;;;;;3.30;0.90;;;11.10;99.90;;;;;;4968960;28;20331;-78
2024/03/29 09:57:02;;;;;;;1.92;0.80;;;11.20;99.90;;;;;;4983189;28;20038;-78
2024/03/29 09:59:28;;;;;;;2.00;0.75;;;11.20;99.90;;;;;;4955954;28;20412;-76
2024/03/29 10:01:55;;;;;;;1.83;0.68;;;11.30;99.90;;;;;;4985612;28;20933;-78
2024/03/29 10:04:21;;;;;;;2.78;0.65;;;11.30;99.90;;;;;;4972361;28;20034;-77
2024/03/29 10:06:50;;;;;;;1.27;0.50;;;11.40;99.90;;;;;;4957225;28;20385;-77
2024/03/29 10:09:19;;;;;;;1.00;0.90;;;11.50;99.90;;;;;;4954633;28;20053;-78
2024/03/29 10:11:45;;;;;;;4.00;0.95;;;11.60;99.90;;;;;;4953734;28;20146;-77
2024/03/29 10:14:11;;;;;;;0.65;0.60;;;11.70;99.90;;;;;;4967721;28;20489;-77
2024/03/29 10:16:37;;;;;;;2.15;1.15;;;11.80;99.90;;;;;;4954342;28;20053;-77
2024/03/29 10:19:04;;;;;;;0.93;0.50;;;11.90;99.90;;;;;;4968641;28;20038;-77
2024/03/29 10:21:30;;;;;;;2.45;0.88;;;11.90;99.90;;;;;;4986359;28;20038;-77
2024/03/29 10:23:55;;;;;;;2.53;0.65;;;11.90;99.90;;;;;;4953088;28;20042;-77
2024/03/29 10:26:21;;;;;;;4.63;0.95;;;12.00;99.90;;;;;;4965741;28;20042;-78
2024/03/29 10:28:47;;;;;;;4.53;0.73;;;12.20;99.90;;;;;;4953864;28;20100;-78
2024/03/29 10:31:14;;;;;;;3.15;0.77;;;12.10;99.90;;;;;;4943823;28;20136;-79
2024/03/29 10:33:41;;;;;;;0.70;0.60;;;12.10;99.90;;;;;;4967393;28;20145;-78
2024/03/29 10:36:09;;;;;;;0.93;0.60;;;12.10;99.90;;;;;;4968411;28;20061;-77
2024/03/29 10:38:36;;;;;;;1.35;0.50;;;12.20;99.90;;;;;;4970534;28;20034;-77
2024/03/29 10:41:03;;;;;;;0.98;0.82;;;12.20;99.90;;;;;;4982038;28;20356;-77
2024/03/29 10:43:29;;;;;;;0.77;0.60;;;12.20;99.90;;;;;;4965896;28;20045;-78
2024/03/29 10:45:59;;;;;;;1.70;0.50;;;12.20;99.90;;;;;;4950383;28;20034;-77
2024/03/29 10:48:28;;;;;;;1.52;0.52;;;12.20;99.90;;;;;;4972062;28;20046;-78
2024/03/29 10:50:57;;;;;;;1.10;0.50;;;12.20;99.90;;;;;;4967230;28;20113;-77
2024/03/29 10:53:25;;;;;;;1.45;0.65;;;12.20;99.90;;;;;;4982001;28;20034;-77
2024/03/29 10:55:53;;;;;;;0.75;0.60;;;12.40;99.90;;;;;;4950565;28;20031;-77
2024/03/29 10:58:24;;;;;;;0.85;0.40;;;12.40;99.90;;;;;;4971390;28;20442;-77
2024/03/29 11:00:51;;;;;;;1.20;0.60;;;12.60;99.90;;;;;;4961482;28;20539;-77
2024/03/29 11:03:37;;;;;;;1.33;0.55;;;12.70;99.90;;;;;;4987652;28;20485;-76
2024/03/29 11:06:04;;;;;;;2.30;0.70;;;12.80;99.90;;;;;;4964792;28;20031;-77
2024/03/29 11:08:37;;;;;;;2.78;0.70;;;12.90;99.90;;;;;;4954158;28;20037;-77
2024/03/29 11:11:04;;;;;;;1.00;0.60;;;13.10;99.90;;;;;;4980455;28;20562;-77
2024/03/29 11:13:49;;;;;;;0.75;0.55;;;13.30;99.90;;;;;;4984833;28;20030;-77
2024/03/29 11:16:16;;;;;;;0.95;0.50;;;13.30;99.90;;;;;;4984195;28;20142;-77
2024/03/29 11:18:41;;;;;;;2.70;0.60;;;13.40;99.90;;;;;;4974364;28;20027;-78
2024/03/29 11:21:09;;;;;;;2.88;0.60;;;13.70;99.90;;;;;;4970802;28;20031;-77
2024/03/29 11:23:35;;;;;;;1.70;0.60;;;13.70;99.90;;;;;;4969311;28;20365;-77
2024/03/29 11:26:01;;;;;;;1.33;0.50;;;13.70;99.90;;;;;;4969729;28;20018;-77
2024/03/29 11:28:29;;;;;;;2.15;0.80;;;13.80;99.90;;;;;;4953516;28;20030;-77
2024/03/29 11:30:59;;;;;;;2.00;0.55;;;14.10;99.90;;;;;;4959851;28;20026;-78
2024/03/29 11:33:44;;;;;;;0.43;0.30;;;14.30;99.90;;;;;;4985133;28;20522;-77
2024/03/29 11:36:13;;;;;;;2.75;0.35;;;14.30;99.90;;;;;;4991174;28;20391;-78
2024/03/29 11:38:39;;;;;;;0.28;0.28;;;14.30;99.90;;;;;;4988415;28;20030;-77
2024/03/29 11:41:23;;;;;;;0.60;0.35;;;14.50;99.90;;;;;;4987448;28;20068;-77
2024/03/29 11:43:49;;;;;;;2.15;0.98;;;14.80;99.90;;;;;;4972394;28;20507;-77
2024/03/29 11:46:17;;;;;;;0.98;0.43;;;15.10;99.90;;;;;;4990202;28;20038;-78
2024/03/29 11:48:48;;;;;;;0.73;0.50;;;15.30;99.90;;;;;;4972540;28;20496;-76
2024/03/29 11:51:14;;;;;;;1.52;0.30;;;15.30;99.90;;;;;;4976553;28;20042;-77
2024/03/29 11:53:41;;;;;;;1.58;0.50;;;15.40;99.90;;;;;;4972629;28;20214;-78
2024/03/29 11:56:06;;;;;;;1.45;0.50;;;15.70;99.90;;;;;;5007300;28;20487;-77
2024/03/29 11:58:33;;;;;;;1.55;0.70;;;15.70;99.90;;;;;;4990710;28;20088;-78
2024/03/29 12:00:59;;;;;;;1.02;0.50;;;16.00;99.90;;;;;;4976066;28;20400;-77
2024/03/29 12:03:26;;;;;;;0.40;0.30;;;15.80;99.90;;;;;;4978410;28;20037;-76
2024/03/29 12:05:55;;;;;;;1.00;0.43;;;15.60;99.90;;;;;;4992637;28;20332;-78
2024/03/29 12:08:21;;;;;;;0.80;0.50;;;15.60;99.90;;;;;;5010748;28;20037;-77
2024/03/29 12:10:47;;;;;;;1.08;0.40;;;15.40;99.90;;;;;;4981409;28;20590;-77
2024/03/29 12:13:16;;;;;;;1.85;0.32;;;15.30;99.90;;;;;;4992902;28;20117;-78
2024/03/29 12:15:42;;;;;;;0.90;0.40;;;15.20;99.90;;;;;;4991351;28;20029;-77
2024/03/29 12:18:08;;;;;;;1.35;0.55;;;15.20;99.90;;;;;;4977077;28;20041;-77
2024/03/29 12:20:34;;;;;;;1.25;0.43;;;15.10;99.90;;;;;;4993389;28;20022;-77
2024/03/29 12:23:01;;;;;;;4.25;0.40;;;15.00;99.90;;;;;;4963960;28;20030;-76
2024/03/29 12:25:27;;;;;;;0.55;0.30;;;15.20;99.90;;;;;;4987546;28;20101;-76
2024/03/29 12:27:53;;;;;;;1.33;0.50;;;15.30;99.90;;;;;;4976334;28;20122;-77
2024/03/29 12:30:19;;;;;;;0.55;0.40;;;15.40;99.90;;;;;;4970203;28;20551;-77
2024/03/29 12:32:44;;;;;;;0.73;0.28;;;15.40;99.90;;;;;;4976776;28;20126;-77
2024/03/29 12:35:11;;;;;;;0.17;0.10;;;15.30;99.90;;;;;;4969348;28;20030;-77
2024/03/29 12:37:36;;;;;;;0.88;0.32;;;15.70;99.90;;;;;;4970764;28;20393;-77
2024/03/29 12:40:11;;;;;;;1.05;0.32;;;15.60;99.90;;;;;;4974222;28;20045;-77
2024/03/29 12:42:39;;;;;;;2.78;0.65;;;15.60;99.90;;;;;;4985457;28;20037;-78
2024/03/29 12:45:08;;;;;;;2.25;0.22;;;15.40;99.90;;;;;;4987175;28;20084;-77
2024/03/29 12:47:37;;;;;;;0.28;0.20;;;15.30;99.90;;;;;;4977347;28;20117;-77
2024/03/29 12:50:03;;;;;;;2.03;0.45;;;15.50;99.90;;;;;;4986729;28;20543;-78
2024/03/29 12:52:39;;;;;;;1.20;0.32;;;15.70;99.90;;;;;;4972422;28;20337;-78
2024/03/29 12:55:07;;;;;;;2.22;0.30;;;15.30;99.90;;;;;;4958341;28;20035;-77
2024/03/29 12:57:36;;;;;;;0.70;0.30;;;15.40;99.90;;;;;;4948815;28;20114;-78